createdAt,value
2022-10-16T00:00:02.025Z,100239.59
2022-10-16T00:02:51.504Z,100244.06
2022-10-16T00:05:42.204Z,100241.88
2022-10-16T00:08:28.318Z,100237.44
2022-10-16T00:11:17.881Z,100230.31
2022-10-16T00:14:04.969Z,100234.72
2022-10-16T00:16:51.329Z,100230.31
2022-10-16T00:19:37.069Z,100228.00
2022-10-16T00:22:23.067Z,100227.53
2022-10-16T00:25:09.785Z,100240.37
2022-10-16T00:27:56.284Z,100244.25
2022-10-16T00:30:42.749Z,100235.47
2022-10-16T00:33:29.039Z,100245.75
2022-10-16T00:36:17.261Z,100246.31
2022-10-16T00:39:04.068Z,100241.25
2022-10-16T00:41:50.553Z,100252.00
2022-10-16T00:44:44.817Z,100254.31
2022-10-16T00:47:42.184Z,100250.41
2022-10-16T00:50:32.924Z,100252.50
2022-10-16T00:53:18.608Z,100254.03
2022-10-16T00:56:05.218Z,100250.28
2022-10-16T00:58:51.339Z,100263.75
2022-10-16T01:01:37.609Z,100265.00
2022-10-16T01:04:23.948Z,100258.13
2022-10-16T01:07:16.455Z,100262.06
2022-10-16T01:10:20.879Z,100277.34
2022-10-16T01:13:13.934Z,100282.56
2022-10-16T01:16:00.179Z,100274.44
2022-10-16T01:18:48.029Z,100279.31
2022-10-16T01:21:39.818Z,100279.44
2022-10-16T01:24:42.601Z,100284.50
2022-10-16T01:27:29.772Z,100288.41
2022-10-16T01:30:24.384Z,100288.84
2022-10-16T01:33:11.489Z,100293.12
2022-10-16T01:35:59.976Z,100285.78
2022-10-16T01:38:46.128Z,100287.31
2022-10-16T01:41:33.429Z,100285.88
2022-10-16T01:44:23.779Z,100291.91
2022-10-16T01:47:10.154Z,100290.09
2022-10-16T01:49:56.041Z,100302.25
2022-10-16T01:52:44.843Z,100288.81
2022-10-16T01:55:32.061Z,100288.50
2022-10-16T01:58:18.669Z,100291.22
2022-10-16T02:01:04.999Z,100297.75
2022-10-16T02:03:52.014Z,100294.25
2022-10-16T02:06:38.137Z,100296.28
2022-10-16T02:09:24.661Z,100304.22
2022-10-16T02:12:15.509Z,100303.25
2022-10-16T02:15:01.961Z,100306.16
2022-10-16T02:17:48.117Z,100316.53
2022-10-16T02:20:35.599Z,100306.13
2022-10-16T02:23:25.325Z,100311.53
2022-10-16T02:26:13.760Z,100313.78
2022-10-16T02:29:06.025Z,100307.47
2022-10-16T02:31:54.907Z,100312.00
2022-10-16T02:34:40.940Z,100314.53
2022-10-16T02:37:27.203Z,100314.09
2022-10-16T02:40:13.598Z,100322.25
2022-10-16T02:43:00.359Z,100328.06
2022-10-16T02:45:46.726Z,100320.47
2022-10-16T02:48:33.336Z,100332.00
2022-10-16T02:51:19.852Z,100322.19
2022-10-16T02:54:06.196Z,100323.84
2022-10-16T02:56:53.081Z,100330.19
2022-10-16T02:59:40.619Z,100329.59
2022-10-16T03:02:26.618Z,100330.31
2022-10-16T03:05:13.052Z,100324.13
2022-10-16T03:08:01.687Z,100324.41
2022-10-16T03:10:48.609Z,100332.66
2022-10-16T03:13:34.626Z,100328.69
2022-10-16T03:16:21.677Z,100330.28
2022-10-16T03:19:08.275Z,100338.41
2022-10-16T03:21:54.387Z,100333.94
2022-10-16T03:24:40.431Z,100342.16
2022-10-16T03:27:27.175Z,100344.56
2022-10-16T03:30:13.742Z,100353.97
2022-10-16T03:33:00.271Z,100350.41
2022-10-16T03:35:51.805Z,100356.84
2022-10-16T03:38:38.835Z,100364.28
2022-10-16T03:41:24.556Z,100362.34
2022-10-16T03:44:10.977Z,100365.97
2022-10-16T03:46:57.127Z,100366.03
2022-10-16T03:49:43.225Z,100367.69
2022-10-16T03:52:29.697Z,100368.59
2022-10-16T03:55:16.300Z,100370.13
2022-10-16T03:58:02.596Z,100368.97
2022-10-16T04:00:49.533Z,100375.38
2022-10-16T04:03:35.855Z,100373.44
2022-10-16T04:06:22.700Z,100371.81
2022-10-16T04:09:09.124Z,100382.09
2022-10-16T04:11:55.274Z,100389.75
2022-10-16T04:14:42.162Z,100392.69
2022-10-16T04:17:28.489Z,100392.69
2022-10-16T04:20:21.006Z,100383.34
2022-10-16T04:23:07.374Z,100386.00
2022-10-16T04:25:56.509Z,100385.81
2022-10-16T04:28:42.774Z,100381.19
2022-10-16T04:31:29.065Z,100387.41
2022-10-16T04:34:15.015Z,100381.16
2022-10-16T04:37:01.476Z,100393.59
2022-10-16T04:39:48.464Z,100388.22
2022-10-16T04:42:42.634Z,100387.06
2022-10-16T04:45:30.364Z,100385.38
2022-10-16T04:48:17.401Z,100385.19
2022-10-16T04:51:04.863Z,100400.47
2022-10-16T04:53:50.926Z,100398.00
2022-10-16T04:56:45.467Z,100411.00
2022-10-16T04:59:40.640Z,100408.66
2022-10-16T05:02:26.841Z,100406.13
2022-10-16T05:05:13.947Z,100401.47
2022-10-16T05:08:00.052Z,100404.00
2022-10-16T05:10:46.642Z,100399.41
2022-10-16T05:13:32.677Z,100398.31
2022-10-16T05:16:19.210Z,100402.78
2022-10-16T05:22:14.475Z,100422.41
2022-10-16T05:25:02.045Z,100413.13
2022-10-16T05:30:44.659Z,100425.34
2022-10-16T05:33:31.763Z,100420.53
2022-10-16T05:36:21.486Z,100430.31
2022-10-16T05:39:09.175Z,100431.84
2022-10-16T05:42:00.465Z,100429.09
2022-10-16T05:44:48.703Z,100429.19
2022-10-16T05:47:44.457Z,100423.94
2022-10-16T05:50:32.440Z,100426.31
2022-10-16T05:53:22.467Z,100439.25
2022-10-16T05:56:12.488Z,100438.72
2022-10-16T05:59:12.706Z,100444.94
2022-10-16T06:02:01.031Z,100439.94
2022-10-16T06:04:49.416Z,100439.53
2022-10-16T06:07:36.950Z,100443.59
2022-10-16T06:10:26.821Z,100453.81
2022-10-16T06:13:23.374Z,100462.47
2022-10-16T06:16:13.060Z,100467.44
2022-10-16T06:19:09.417Z,100465.00
2022-10-16T06:21:59.436Z,100465.69
2022-10-16T06:24:47.510Z,100473.47
2022-10-16T06:27:38.438Z,100478.75
2022-10-16T06:33:28.529Z,100493.72
2022-10-16T06:36:16.235Z,100494.25
2022-10-16T06:39:02.957Z,100492.72
2022-10-16T06:41:53.505Z,100492.31
2022-10-16T06:44:45.147Z,100494.84
2022-10-16T06:47:34.983Z,100501.09
2022-10-16T06:50:26.217Z,100510.41
2022-10-16T06:53:12.709Z,100518.16
2022-10-16T06:56:00.713Z,100530.81
2022-10-16T06:58:54.641Z,100522.44
2022-10-16T07:01:44.037Z,100524.56
2022-10-16T07:04:31.834Z,100523.94
2022-10-16T07:07:25.757Z,100520.34
2022-10-16T07:10:28.693Z,100526.91
2022-10-16T07:16:19.471Z,100541.56
2022-10-16T07:19:15.752Z,100543.72
2022-10-16T07:22:04.157Z,100540.09
2022-10-16T07:25:00.831Z,100550.03
2022-10-16T07:27:57.425Z,100546.59
2022-10-16T07:30:49.521Z,100541.25
2022-10-16T07:33:37.523Z,100552.94
2022-10-16T07:36:29.006Z,100540.03
2022-10-16T07:39:18.748Z,100534.94
2022-10-16T07:42:11.602Z,100542.19
2022-10-16T07:45:05.634Z,100556.06
2022-10-16T07:48:04.474Z,100556.31
2022-10-16T07:50:52.981Z,100554.41
2022-10-16T07:53:44.378Z,100558.53
2022-10-16T07:56:31.948Z,100561.91
2022-10-16T07:59:23.449Z,100566.81
2022-10-16T08:02:09.987Z,100574.94
2022-10-16T08:04:58.016Z,100574.62
2022-10-16T08:07:53.649Z,100580.31
2022-10-16T08:13:49.032Z,100583.53
2022-10-16T08:16:40.487Z,100599.25
2022-10-16T08:19:28.493Z,100593.66
2022-10-16T08:22:27.587Z,100599.59
2022-10-16T08:25:15.525Z,100594.28
2022-10-16T08:28:08.432Z,100595.63
2022-10-16T08:30:58.280Z,100609.97
2022-10-16T08:33:48.404Z,100603.47
2022-10-16T08:36:44.475Z,100601.94
2022-10-16T08:39:40.444Z,100597.88
2022-10-16T08:42:35.495Z,100607.97
2022-10-16T08:45:34.448Z,100607.66
2022-10-16T08:48:25.485Z,100612.00
2022-10-16T08:51:19.777Z,100614.13
2022-10-16T08:54:17.102Z,100614.47
2022-10-16T08:57:29.484Z,100608.62
2022-10-16T09:00:16.634Z,100617.22
2022-10-16T09:03:11.797Z,100617.97
2022-10-16T09:06:25.005Z,100625.19
2022-10-16T09:09:40.423Z,100627.28
2022-10-16T09:12:29.584Z,100623.47
2022-10-16T09:15:34.918Z,100630.41
2022-10-16T09:18:20.995Z,100627.44
2022-10-16T09:21:21.617Z,100635.00
2022-10-16T09:24:19.588Z,100630.03
2022-10-16T09:27:12.524Z,100624.38
2022-10-16T09:30:17.572Z,100620.13
2022-10-16T09:33:05.073Z,100613.66
2022-10-16T09:35:59.893Z,100628.75
2022-10-16T09:38:47.666Z,100619.56
2022-10-16T09:41:40.484Z,100619.69
2022-10-16T09:44:38.526Z,100619.91
2022-10-16T09:47:27.953Z,100629.91
2022-10-16T09:50:41.372Z,100629.44
2022-10-16T09:53:39.482Z,100634.00
2022-10-16T09:56:31.481Z,100632.66
2022-10-16T09:59:20.429Z,100647.34
2022-10-16T10:02:11.774Z,100638.22
2022-10-16T10:05:05.914Z,100636.59
2022-10-16T10:08:14.202Z,100637.34
2022-10-16T10:14:08.804Z,100640.75
2022-10-16T10:17:13.791Z,100621.81
2022-10-16T10:20:08.615Z,100611.38
2022-10-16T10:22:56.629Z,100611.72
2022-10-16T10:26:02.757Z,100614.06
2022-10-16T10:32:00.609Z,100612.41
2022-10-16T10:34:50.587Z,100602.25
2022-10-16T10:37:41.461Z,100601.25
2022-10-16T10:40:49.456Z,100601.12
2022-10-16T10:43:41.249Z,100599.25
2022-10-16T10:46:39.822Z,100606.66
2022-10-16T10:49:49.029Z,100604.97
2022-10-16T10:52:53.554Z,100602.25
2022-10-16T10:55:43.586Z,100603.09
2022-10-16T10:58:52.492Z,100606.22
2022-10-16T11:01:44.112Z,100613.37
2022-10-16T11:04:43.685Z,100612.34
2022-10-16T11:07:52.908Z,100615.66
2022-10-16T11:10:43.099Z,100613.28
2022-10-16T11:13:34.477Z,100611.53
2022-10-16T11:16:30.495Z,100609.91
2022-10-16T11:19:21.458Z,100606.31
2022-10-16T11:22:27.617Z,100601.47
2022-10-16T11:25:18.751Z,100595.06
2022-10-16T11:28:14.546Z,100587.16
2022-10-16T11:31:23.438Z,100590.44
2022-10-16T11:34:23.103Z,100588.75
2022-10-16T11:37:16.235Z,100580.59
2022-10-16T11:43:18.842Z,100594.44
2022-10-16T11:46:14.513Z,100589.13
2022-10-16T11:49:08.600Z,100591.28
2022-10-16T11:52:22.515Z,100587.78
2022-10-16T11:55:20.470Z,100585.66
2022-10-16T11:58:37.460Z,100596.47
2022-10-16T12:01:49.853Z,100592.50
2022-10-16T12:04:46.551Z,100575.03
2022-10-16T12:07:37.760Z,100583.84
2022-10-16T12:10:29.955Z,100582.16
2022-10-16T12:13:32.509Z,100575.16
2022-10-16T12:16:22.628Z,100578.56
2022-10-16T12:22:17.509Z,100569.84
2022-10-16T12:25:04.342Z,100576.91
2022-10-16T12:28:00.482Z,100563.06
2022-10-16T12:31:00.729Z,100562.13
2022-10-16T12:34:01.501Z,100569.47
2022-10-16T12:36:48.190Z,100561.66
2022-10-16T12:39:39.072Z,100561.81
2022-10-16T12:42:30.740Z,100562.50
2022-10-16T12:45:39.694Z,100562.44
2022-10-16T12:48:48.242Z,100564.81
2022-10-16T12:51:37.941Z,100558.41
2022-10-16T12:54:32.484Z,100553.09
2022-10-16T12:57:45.545Z,100559.16
2022-10-16T13:00:38.156Z,100570.66
2022-10-16T13:03:31.459Z,100567.69
2022-10-16T13:06:24.117Z,100573.50
2022-10-16T13:09:16.958Z,100573.97
2022-10-16T13:12:23.578Z,100570.44
2022-10-16T13:15:31.507Z,100561.38
2022-10-16T13:18:26.006Z,100568.28
2022-10-16T13:21:18.691Z,100569.37
2022-10-16T13:27:12.502Z,100578.66
2022-10-16T13:30:28.127Z,100573.91
2022-10-16T13:33:36.527Z,100577.66
2022-10-16T13:39:31.930Z,100584.84
2022-10-16T13:42:28.559Z,100579.63
2022-10-16T13:45:23.967Z,100573.13
2022-10-16T13:48:17.565Z,100569.94
2022-10-16T13:51:05.556Z,100581.59
2022-10-16T13:53:52.460Z,100581.19
2022-10-16T13:56:45.529Z,100590.75
2022-10-16T13:59:35.751Z,100586.25
2022-10-16T14:02:35.539Z,100589.22
2022-10-16T14:05:31.462Z,100590.97
2022-10-16T14:08:30.135Z,100597.22
2022-10-16T14:11:25.326Z,100586.78
2022-10-16T14:14:18.637Z,100588.81
2022-10-16T14:17:06.695Z,100583.22
2022-10-16T14:20:08.569Z,100589.84
2022-10-16T14:23:01.305Z,100586.81
2022-10-16T14:25:51.058Z,100574.78
2022-10-16T14:28:38.251Z,100588.84
2022-10-16T14:31:28.516Z,100588.84
2022-10-16T14:34:29.509Z,100588.00
2022-10-16T14:37:29.708Z,100581.12
2022-10-16T14:40:31.843Z,100581.53
2022-10-16T14:43:27.553Z,100588.72
2022-10-16T14:46:41.491Z,100589.91
2022-10-16T14:49:44.108Z,100587.47
2022-10-16T14:52:31.923Z,100591.72
2022-10-16T14:55:19.521Z,100601.62
2022-10-16T14:58:06.559Z,100596.28
2022-10-16T15:03:47.534Z,100591.44
2022-10-16T15:06:37.758Z,100591.38
2022-10-16T15:09:26.457Z,100592.91
2022-10-16T15:12:16.493Z,100593.84
2022-10-16T15:15:26.613Z,100591.44
2022-10-16T15:18:21.602Z,100603.72
2022-10-16T15:21:32.773Z,100613.37
2022-10-16T15:24:22.030Z,100616.56
2022-10-16T15:27:09.227Z,100621.34
2022-10-16T15:29:57.459Z,100619.97
2022-10-16T15:32:44.988Z,100619.03
2022-10-16T15:35:45.539Z,100618.91
2022-10-16T15:38:47.521Z,100624.13
2022-10-16T15:41:35.095Z,100625.25
2022-10-16T15:44:30.801Z,100628.47
2022-10-16T15:47:19.928Z,100630.31
2022-10-16T15:50:15.050Z,100638.97
2022-10-16T15:53:12.550Z,100631.69
2022-10-16T15:56:18.725Z,100625.19
2022-10-16T15:59:17.355Z,100631.41
2022-10-16T16:02:12.867Z,100627.97
2022-10-16T16:05:07.586Z,100647.59
2022-10-16T16:11:22.571Z,100643.53
2022-10-16T16:14:17.500Z,100653.87
2022-10-16T16:17:11.965Z,100661.88
2022-10-16T16:26:10.859Z,100674.81
2022-10-16T16:29:03.731Z,100680.87
2022-10-16T16:32:01.575Z,100679.19
2022-10-16T16:34:53.526Z,100691.59
2022-10-16T16:37:50.533Z,100685.72
2022-10-16T16:40:41.500Z,100697.19
2022-10-16T16:43:45.564Z,100710.84
2022-10-16T16:46:47.545Z,100710.75
2022-10-16T16:49:53.505Z,100706.56
2022-10-16T16:52:53.980Z,100711.44
2022-10-16T16:55:45.829Z,100709.31
2022-10-16T16:58:37.563Z,100718.50
2022-10-16T17:04:35.545Z,100722.78
2022-10-16T17:10:30.505Z,100737.19
2022-10-16T17:13:17.801Z,100747.09
2022-10-16T17:16:19.788Z,100752.44
2022-10-16T17:22:22.502Z,100761.94
2022-10-16T17:25:16.567Z,100763.56
2022-10-16T17:28:12.727Z,100769.59
2022-10-16T17:31:14.551Z,100772.22
2022-10-16T17:34:18.476Z,100774.31
2022-10-16T17:37:06.993Z,100773.09
2022-10-16T17:40:25.454Z,100775.03
2022-10-16T17:43:11.971Z,100783.47
2022-10-16T17:46:06.935Z,100785.91
2022-10-16T17:49:06.762Z,100793.03
2022-10-16T17:51:57.793Z,100795.97
2022-10-16T17:55:01.729Z,100801.66
2022-10-16T17:57:53.496Z,100802.81
2022-10-16T18:00:42.963Z,100805.44
2022-10-16T18:03:32.819Z,100798.91
2022-10-16T18:06:27.246Z,100804.78
2022-10-16T18:09:42.604Z,100802.63
2022-10-16T18:12:53.567Z,100809.66
2022-10-16T18:16:04.816Z,100804.56
2022-10-16T18:18:59.614Z,100815.94
2022-10-16T18:21:53.518Z,100814.97
2022-10-16T18:24:48.783Z,100811.56
2022-10-16T18:33:35.635Z,100817.00
2022-10-16T18:36:30.849Z,100824.13
2022-10-16T18:39:22.542Z,100825.41
2022-10-16T18:42:21.542Z,100830.41
2022-10-16T18:45:15.909Z,100828.19
2022-10-16T18:48:04.251Z,100826.22
2022-10-16T18:50:55.515Z,100825.06
2022-10-16T18:53:47.710Z,100833.44
2022-10-16T18:56:47.749Z,100829.63
2022-10-16T18:59:35.337Z,100829.28
2022-10-16T19:02:25.856Z,100833.91
2022-10-16T19:05:20.097Z,100829.59
2022-10-16T19:08:16.648Z,100834.88
2022-10-16T19:11:14.174Z,100849.06
2022-10-16T19:14:11.530Z,100841.28
2022-10-16T19:17:08.597Z,100853.72
2022-10-16T19:20:03.513Z,100847.56
2022-10-16T19:23:00.603Z,100840.72
2022-10-16T19:34:51.559Z,100851.06
2022-10-16T19:37:44.881Z,100835.12
2022-10-16T19:40:38.901Z,100846.25
2022-10-16T19:43:50.329Z,100864.72
2022-10-16T19:46:45.404Z,100864.19
2022-10-16T19:49:33.386Z,100871.56
2022-10-16T19:52:27.686Z,100874.53
2022-10-16T19:55:19.108Z,100886.59
2022-10-16T20:01:15.686Z,100873.81
2022-10-16T20:04:12.986Z,100885.34
2022-10-16T20:07:07.590Z,100896.28
2022-10-16T20:09:59.531Z,100898.41
2022-10-16T20:12:46.476Z,100898.31
2022-10-16T20:15:46.793Z,100904.78
2022-10-16T20:18:41.238Z,100915.31
2022-10-16T20:21:33.464Z,100920.03
2022-10-16T20:24:24.094Z,100921.56
2022-10-16T20:27:26.921Z,100928.22
2022-10-16T20:30:14.700Z,100934.12
2022-10-16T20:36:15.308Z,100944.31
2022-10-16T20:39:09.717Z,100946.09
2022-10-16T20:42:03.528Z,100947.31
2022-10-16T20:44:51.395Z,100959.06
2022-10-16T20:47:42.568Z,100955.09
2022-10-16T20:50:31.511Z,100961.78
2022-10-16T20:53:18.397Z,100959.84
2022-10-16T20:56:11.533Z,100959.84
2022-10-16T20:59:00.553Z,100959.03
2022-10-16T21:01:54.244Z,100958.63
2022-10-16T21:04:44.659Z,100960.50
2022-10-16T21:10:36.506Z,100977.25
2022-10-16T21:13:28.208Z,100972.09
2022-10-16T21:16:18.613Z,100970.88
2022-10-16T21:19:06.291Z,100979.78
2022-10-16T21:21:52.325Z,100977.84
2022-10-16T21:24:40.035Z,100982.87
2022-10-16T21:27:27.737Z,100979.37
2022-10-16T21:30:16.004Z,100980.94
2022-10-16T21:33:05.925Z,100978.66
2022-10-16T21:35:52.694Z,100980.69
2022-10-16T21:38:38.778Z,100984.22
2022-10-16T21:41:27.410Z,100985.28
2022-10-16T21:44:13.953Z,100983.81
2022-10-16T21:47:00.633Z,100984.50
2022-10-16T21:49:48.775Z,100989.06
2022-10-16T21:52:35.283Z,100986.03
2022-10-16T21:55:23.994Z,100980.94
2022-10-16T21:58:10.315Z,100986.78
2022-10-16T22:00:56.877Z,100991.81
2022-10-16T22:03:45.174Z,100979.78
2022-10-16T22:06:31.956Z,100986.34
2022-10-16T22:09:18.370Z,100994.66
2022-10-16T22:12:04.951Z,100999.31
2022-10-16T22:14:51.249Z,100996.16
2022-10-16T22:17:37.663Z,101003.00
2022-10-16T22:20:25.530Z,101007.59
2022-10-16T22:23:13.411Z,101007.44
2022-10-16T22:26:04.039Z,101010.66
2022-10-16T22:28:50.553Z,101005.66
2022-10-16T22:31:37.101Z,101010.59
2022-10-16T22:34:23.532Z,101008.81
2022-10-16T22:37:09.858Z,101006.44
2022-10-16T22:40:00.945Z,101012.06
2022-10-16T22:45:39.127Z,101013.63
2022-10-16T22:48:25.661Z,101014.66
2022-10-16T22:51:16.775Z,101018.25
2022-10-16T22:54:04.215Z,101019.06
2022-10-16T22:56:50.117Z,101022.03
2022-10-16T22:59:37.082Z,101023.50
2022-10-16T23:02:23.606Z,101030.59
2022-10-16T23:05:11.895Z,101033.06
2022-10-16T23:07:58.027Z,101027.91
2022-10-16T23:10:47.083Z,101032.31
2022-10-16T23:13:36.405Z,101036.78
2022-10-16T23:16:23.733Z,101040.59
2022-10-16T23:22:03.744Z,101054.06
2022-10-16T23:24:50.070Z,101056.66
2022-10-16T23:27:36.423Z,101051.00
2022-10-16T23:30:23.959Z,101049.38
2022-10-16T23:33:10.654Z,101047.00
2022-10-16T23:35:56.536Z,101044.19
2022-10-16T23:38:44.613Z,101052.66
2022-10-16T23:41:30.516Z,101060.25
2022-10-16T23:44:17.532Z,101064.44
2022-10-16T23:47:03.972Z,101071.88
2022-10-16T23:49:50.436Z,101073.56
2022-10-16T23:52:37.459Z,101069.06
2022-10-16T23:55:24.355Z,101065.34
2022-10-16T23:58:10.854Z,101060.72
